createdAt,value
2018-05-17T00:00:44.905Z,0
2018-05-17T00:01:45.475Z,0
2018-05-17T00:02:46.054Z,0
2018-05-17T00:03:46.625Z,0
2018-05-17T00:04:47.194Z,0
2018-05-17T00:05:47.763Z,0
2018-05-17T00:06:48.332Z,0
2018-05-17T00:07:48.901Z,0
2018-05-17T00:08:49.473Z,0
2018-05-17T00:09:50.041Z,0
2018-05-17T00:10:50.609Z,0
2018-05-17T00:11:51.178Z,0
2018-05-17T00:12:51.748Z,0
2018-05-17T00:13:52.317Z,0
2018-05-17T00:14:52.885Z,0
2018-05-17T00:15:53.458Z,0
2018-05-17T00:16:54.033Z,0
2018-05-17T00:17:54.603Z,0
2018-05-17T00:18:55.175Z,0
2018-05-17T00:19:55.743Z,0
2018-05-17T00:20:56.323Z,0
2018-05-17T00:21:56.895Z,0
2018-05-17T00:22:57.465Z,0
2018-05-17T00:23:58.036Z,0
2018-05-17T00:24:58.608Z,0
2018-05-17T00:25:59.173Z,0
2018-05-17T00:26:59.742Z,0
2018-05-17T00:28:00.313Z,0
2018-05-17T00:29:00.882Z,0
2018-05-17T00:30:01.462Z,0
2018-05-17T00:31:02.034Z,0
2018-05-17T00:32:02.613Z,0
2018-05-17T00:33:03.180Z,0
2018-05-17T00:34:03.748Z,0
2018-05-17T00:35:04.317Z,0
2018-05-17T00:36:04.898Z,0
2018-05-17T00:37:05.466Z,0
2018-05-17T00:38:06.049Z,0
2018-05-17T00:39:06.617Z,0
2018-05-17T00:40:07.192Z,0
2018-05-17T00:41:07.767Z,0
2018-05-17T00:42:08.335Z,0
2018-05-17T00:43:08.905Z,0
2018-05-17T00:44:09.473Z,0
2018-05-17T00:45:10.042Z,0
2018-05-17T00:46:10.612Z,0
2018-05-17T00:47:11.182Z,0
2018-05-17T00:48:11.753Z,0
2018-05-17T00:49:12.323Z,0
2018-05-17T00:50:12.893Z,0
2018-05-17T00:51:13.463Z,0
2018-05-17T00:52:14.042Z,0
2018-05-17T00:53:14.612Z,0
2018-05-17T00:54:15.182Z,0
2018-05-17T00:55:15.752Z,0
2018-05-17T00:56:16.321Z,0
2018-05-17T00:57:16.892Z,0
2018-05-17T00:58:17.471Z,0
2018-05-17T00:59:18.042Z,0
2018-05-17T01:00:18.609Z,0
2018-05-17T01:01:19.181Z,0
2018-05-17T01:02:19.751Z,0
2018-05-17T01:03:20.321Z,0
2018-05-17T01:04:20.893Z,0
2018-05-17T01:05:21.476Z,0
2018-05-17T01:06:22.041Z,0
2018-05-17T01:07:22.612Z,0
2018-05-17T01:08:23.182Z,0
2018-05-17T01:09:23.753Z,0
2018-05-17T01:10:24.321Z,0
2018-05-17T01:11:24.893Z,0
2018-05-17T01:12:25.462Z,0
2018-05-17T01:13:26.033Z,0
2018-05-17T01:14:26.601Z,0
2018-05-17T01:15:27.181Z,0
2018-05-17T01:16:27.751Z,0
2018-05-17T01:17:28.320Z,0
2018-05-17T01:18:28.892Z,0
2018-05-17T01:19:29.463Z,0
2018-05-17T01:20:30.034Z,0
2018-05-17T01:21:30.603Z,0
2018-05-17T01:22:31.174Z,0
2018-05-17T01:23:31.744Z,0
2018-05-17T01:24:32.316Z,0
2018-05-17T01:25:32.886Z,0
2018-05-17T01:26:33.458Z,0
2018-05-17T01:27:34.029Z,0
2018-05-17T01:28:34.597Z,0
2018-05-17T01:29:35.168Z,0
2018-05-17T01:30:35.741Z,0
2018-05-17T01:31:36.320Z,0
2018-05-17T01:32:36.891Z,0
2018-05-17T01:33:37.461Z,0
2018-05-17T01:34:38.030Z,0
2018-05-17T01:35:38.613Z,0
2018-05-17T01:36:39.182Z,0
2018-05-17T01:37:39.753Z,0
2018-05-17T01:38:40.322Z,0
2018-05-17T01:39:40.894Z,0
2018-05-17T01:40:41.560Z,0
2018-05-17T01:41:42.047Z,0
2018-05-17T01:42:42.619Z,0
2018-05-17T01:43:43.220Z,0
2018-05-17T01:44:43.770Z,0
2018-05-17T01:45:44.344Z,0
2018-05-17T01:46:44.925Z,0
2018-05-17T01:47:45.496Z,0
2018-05-17T01:48:46.068Z,0
2018-05-17T01:49:46.650Z,0
2018-05-17T01:50:47.220Z,0
2018-05-17T01:51:47.792Z,0
2018-05-17T01:52:48.362Z,0
2018-05-17T01:53:48.933Z,0
2018-05-17T01:54:49.502Z,0
2018-05-17T01:55:50.072Z,0
2018-05-17T01:56:50.641Z,0
2018-05-17T01:57:51.213Z,0
2018-05-17T01:58:51.788Z,0
2018-05-17T01:59:52.355Z,0
2018-05-17T02:00:52.931Z,0
2018-05-17T02:01:53.496Z,0
2018-05-17T02:02:54.066Z,0
2018-05-17T02:03:54.636Z,0
2018-05-17T02:04:55.206Z,0
2018-05-17T02:05:55.775Z,0
2018-05-17T02:06:56.345Z,0
2018-05-17T02:07:56.916Z,0
2018-05-17T02:08:57.486Z,0
2018-05-17T02:09:58.067Z,0
2018-05-17T02:10:58.636Z,0
2018-05-17T02:11:59.205Z,0
2018-05-17T02:12:59.781Z,0
2018-05-17T02:14:00.351Z,0
2018-05-17T02:15:00.928Z,0
2018-05-17T02:16:01.502Z,0
2018-05-17T02:17:02.072Z,0
2018-05-17T02:18:02.639Z,0
2018-05-17T02:19:03.211Z,0
2018-05-17T02:20:03.781Z,0
2018-05-17T02:21:04.351Z,0
2018-05-17T02:22:04.921Z,0
2018-05-17T02:23:05.490Z,0
2018-05-17T02:24:06.061Z,0
2018-05-17T02:25:06.630Z,0
2018-05-17T02:26:07.200Z,0
2018-05-17T02:27:07.773Z,0
2018-05-17T02:28:08.342Z,0
2018-05-17T02:29:08.914Z,0
2018-05-17T02:30:09.483Z,0
2018-05-17T02:31:10.053Z,0
2018-05-17T02:32:10.622Z,0
2018-05-17T02:33:11.193Z,0
2018-05-17T02:34:11.761Z,0
2018-05-17T02:35:12.330Z,0
2018-05-17T02:36:12.901Z,0
2018-05-17T02:37:13.471Z,0
2018-05-17T02:38:14.042Z,0
2018-05-17T02:39:14.613Z,0
2018-05-17T02:40:15.184Z,0
2018-05-17T02:41:15.756Z,0
2018-05-17T02:42:16.325Z,0
2018-05-17T02:43:16.895Z,0
2018-05-17T02:44:17.468Z,0
2018-05-17T02:45:18.037Z,0
2018-05-17T02:46:18.606Z,0
2018-05-17T02:47:19.187Z,0
2018-05-17T02:48:19.767Z,0
2018-05-17T02:49:20.334Z,0
2018-05-17T02:50:20.905Z,0
2018-05-17T02:51:21.475Z,0
2018-05-17T02:52:22.044Z,0
2018-05-17T02:53:22.615Z,0
2018-05-17T02:54:23.192Z,0
2018-05-17T02:55:23.763Z,0
2018-05-17T02:56:24.332Z,0
2018-05-17T02:57:24.904Z,0
2018-05-17T02:58:25.476Z,0
2018-05-17T02:59:26.056Z,0
2018-05-17T03:00:26.627Z,0
2018-05-17T03:01:27.197Z,0
2018-05-17T03:02:27.767Z,0
2018-05-17T03:03:28.342Z,0
2018-05-17T03:04:28.918Z,0
2018-05-17T03:05:29.489Z,0
2018-05-17T03:06:30.060Z,0
2018-05-17T03:07:30.631Z,0
2018-05-17T03:08:31.205Z,0
2018-05-17T03:09:31.781Z,0
2018-05-17T03:10:32.342Z,0
2018-05-17T03:11:32.917Z,0
2018-05-17T03:12:33.493Z,0
2018-05-17T03:13:34.063Z,0
2018-05-17T03:14:34.633Z,0
2018-05-17T03:15:35.211Z,0
2018-05-17T03:16:35.785Z,0
2018-05-17T03:17:36.356Z,0
2018-05-17T03:18:36.938Z,0
2018-05-17T03:19:37.523Z,0
2018-05-17T03:20:38.102Z,0
2018-05-17T03:21:38.671Z,0
2018-05-17T03:22:39.257Z,0
2018-05-17T03:23:39.823Z,0
2018-05-17T03:24:40.392Z,0
2018-05-17T03:25:40.964Z,0
2018-05-17T03:26:41.531Z,0
2018-05-17T03:27:42.101Z,0
2018-05-17T03:28:42.671Z,0
2018-05-17T03:29:43.248Z,0
2018-05-17T03:30:43.826Z,0
2018-05-17T03:31:44.396Z,0
2018-05-17T03:32:44.968Z,0
2018-05-17T03:33:45.541Z,0
2018-05-17T03:34:46.112Z,0
2018-05-17T03:35:46.694Z,0
2018-05-17T03:36:47.265Z,0
2018-05-17T03:37:47.837Z,0
2018-05-17T03:38:48.407Z,0
2018-05-17T03:39:48.977Z,0
2018-05-17T03:40:49.547Z,0
2018-05-17T03:41:50.118Z,0
2018-05-17T03:42:50.688Z,0
2018-05-17T03:43:51.261Z,0
2018-05-17T03:44:51.834Z,0
2018-05-17T03:45:52.403Z,0
2018-05-17T03:46:52.974Z,0
2018-05-17T03:47:53.548Z,0
2018-05-17T03:48:54.128Z,0
2018-05-17T03:49:54.700Z,0
2018-05-17T03:50:55.270Z,0
2018-05-17T03:51:55.841Z,0
2018-05-17T03:52:56.415Z,0
2018-05-17T03:53:56.987Z,0
2018-05-17T03:54:57.558Z,0
2018-05-17T03:55:58.130Z,0
2018-05-17T03:56:58.701Z,0
2018-05-17T03:57:59.273Z,0
2018-05-17T03:58:59.846Z,0
2018-05-17T04:00:00.427Z,0
2018-05-17T04:01:01.009Z,0
2018-05-17T04:02:01.579Z,0
2018-05-17T04:03:02.150Z,0
2018-05-17T04:04:02.721Z,0
2018-05-17T04:05:03.305Z,0
2018-05-17T04:06:03.867Z,0
2018-05-17T04:07:04.439Z,0
2018-05-17T04:08:05.095Z,0
2018-05-17T04:09:05.585Z,0
2018-05-17T04:10:06.156Z,0
2018-05-17T04:11:06.729Z,0
2018-05-17T04:12:07.299Z,0
2018-05-17T04:13:07.869Z,0
2018-05-17T04:14:08.439Z,0
2018-05-17T04:15:09.011Z,0
2018-05-17T04:16:09.584Z,0
2018-05-17T04:17:10.154Z,0
2018-05-17T04:18:10.725Z,0
2018-05-17T04:19:11.297Z,0
2018-05-17T04:20:11.868Z,0
2018-05-17T04:21:12.438Z,0
2018-05-17T04:22:13.009Z,0
2018-05-17T04:23:13.582Z,0
2018-05-17T04:24:14.153Z,0
2018-05-17T04:25:14.724Z,0
2018-05-17T04:26:15.295Z,0
2018-05-17T04:27:15.866Z,0
2018-05-17T04:28:16.439Z,0
2018-05-17T04:29:17.029Z,0
2018-05-17T04:30:17.592Z,0
2018-05-17T04:31:18.167Z,0
2018-05-17T04:32:18.738Z,0
2018-05-17T04:33:19.320Z,0
2018-05-17T04:34:19.893Z,0
2018-05-17T04:35:20.467Z,0
2018-05-17T04:36:21.035Z,0
2018-05-17T04:37:21.606Z,0
2018-05-17T04:38:22.178Z,0
2018-05-17T04:39:22.752Z,0
2018-05-17T04:40:23.401Z,5
2018-05-17T04:41:23.895Z,5
2018-05-17T04:42:24.466Z,5
2018-05-17T04:43:25.049Z,5
2018-05-17T04:44:25.619Z,5
2018-05-17T04:45:26.192Z,5
2018-05-17T04:46:26.764Z,5
2018-05-17T04:47:27.337Z,5
2018-05-17T04:48:27.915Z,5
2018-05-17T04:49:28.481Z,5
2018-05-17T04:50:29.053Z,5
2018-05-17T04:51:29.626Z,5
2018-05-17T04:52:30.203Z,5
2018-05-17T04:53:30.783Z,5
2018-05-17T04:54:31.355Z,5
2018-05-17T04:55:31.927Z,5
2018-05-17T04:56:32.499Z,5
2018-05-17T04:57:33.075Z,5
2018-05-17T04:58:33.644Z,5
2018-05-17T04:59:34.217Z,5
2018-05-17T05:00:34.790Z,5
2018-05-17T05:01:35.361Z,5
2018-05-17T05:02:36.020Z,5
2018-05-17T05:03:36.509Z,5
2018-05-17T05:04:37.080Z,5
2018-05-17T05:05:37.652Z,5
2018-05-17T05:06:38.224Z,5
2018-05-17T05:07:38.799Z,5
2018-05-17T05:08:39.371Z,5
2018-05-17T05:09:39.942Z,5
2018-05-17T05:10:40.514Z,5
2018-05-17T05:11:41.099Z,5
2018-05-17T05:12:41.683Z,5
2018-05-17T05:13:42.256Z,5
2018-05-17T05:14:42.841Z,5
2018-05-17T05:15:43.422Z,5
2018-05-17T05:16:43.996Z,5
2018-05-17T05:17:44.568Z,5
2018-05-17T05:18:45.151Z,5
2018-05-17T05:19:45.725Z,5
2018-05-17T05:20:46.296Z,5
2018-05-17T05:21:46.868Z,5
2018-05-17T05:22:47.443Z,5
2018-05-17T05:23:48.014Z,10
2018-05-17T05:24:48.587Z,10
2018-05-17T05:25:49.159Z,10
2018-05-17T05:26:49.734Z,10
2018-05-17T05:27:50.318Z,10
2018-05-17T05:28:50.893Z,10
2018-05-17T05:29:51.470Z,10
2018-05-17T05:30:52.039Z,10
2018-05-17T05:31:52.625Z,10
2018-05-17T05:32:53.198Z,10
2018-05-17T05:33:53.772Z,10
2018-05-17T05:34:54.346Z,10
2018-05-17T05:35:54.919Z,10
2018-05-17T05:36:55.492Z,10
2018-05-17T05:37:56.065Z,10
2018-05-17T05:38:56.639Z,10
2018-05-17T05:39:57.212Z,10
2018-05-17T05:40:57.786Z,10
2018-05-17T05:41:58.359Z,10
2018-05-17T05:42:58.932Z,10
2018-05-17T05:43:59.506Z,10
2018-05-17T05:45:00.078Z,10
2018-05-17T05:46:00.670Z,10
2018-05-17T05:47:01.234Z,10
2018-05-17T05:48:01.807Z,10
2018-05-17T05:49:02.382Z,10
2018-05-17T05:50:02.955Z,10
2018-05-17T05:51:03.529Z,10
2018-05-17T05:52:04.105Z,10
2018-05-17T05:53:04.676Z,10
2018-05-17T05:54:05.250Z,10
2018-05-17T05:55:05.822Z,10
2018-05-17T05:56:06.397Z,10
2018-05-17T05:57:06.972Z,15
2018-05-17T05:58:07.545Z,15
2018-05-17T05:59:08.123Z,15
2018-05-17T06:00:08.704Z,15
2018-05-17T06:01:09.280Z,15
2018-05-17T06:02:09.852Z,15
2018-05-17T06:03:10.426Z,15
2018-05-17T06:04:11.000Z,15
2018-05-17T06:05:11.573Z,15
2018-05-17T06:06:12.160Z,15
2018-05-17T06:07:12.735Z,15
2018-05-17T06:08:13.310Z,15
2018-05-17T06:09:13.893Z,15
2018-05-17T06:10:14.466Z,15
2018-05-17T06:11:15.044Z,15
2018-05-17T06:12:15.615Z,15
2018-05-17T06:13:16.188Z,15
2018-05-17T06:14:16.775Z,15
2018-05-17T06:15:17.348Z,15
2018-05-17T06:16:17.922Z,15
2018-05-17T06:17:18.504Z,15
2018-05-17T06:18:19.082Z,15
2018-05-17T06:19:19.658Z,15
2018-05-17T06:20:20.234Z,15
2018-05-17T06:21:20.802Z,15
2018-05-17T06:22:21.389Z,15
2018-05-17T06:23:21.960Z,20
2018-05-17T06:24:22.535Z,20
2018-05-17T06:25:23.108Z,20
2018-05-17T06:26:23.681Z,20
2018-05-17T06:27:24.256Z,15
2018-05-17T06:28:24.828Z,15
2018-05-17T06:29:25.404Z,15
2018-05-17T06:30:26.014Z,15
2018-05-17T06:31:26.551Z,15
2018-05-17T06:32:27.129Z,15
2018-05-17T06:33:27.700Z,15
2018-05-17T06:34:28.273Z,15
2018-05-17T06:35:28.849Z,20
2018-05-17T06:36:29.424Z,20
2018-05-17T06:37:30.026Z,20
2018-05-17T06:38:30.572Z,20
2018-05-17T06:39:31.145Z,20
2018-05-17T06:40:31.720Z,20
2018-05-17T06:41:32.291Z,20
2018-05-17T06:42:32.867Z,20
2018-05-17T06:43:33.442Z,20
2018-05-17T06:44:34.090Z,20
2018-05-17T06:45:34.587Z,20
2018-05-17T06:46:35.162Z,20
2018-05-17T06:47:35.737Z,20
2018-05-17T06:48:36.306Z,15
2018-05-17T06:49:36.880Z,15
2018-05-17T06:50:37.454Z,15
2018-05-17T06:51:38.029Z,15
2018-05-17T06:52:38.621Z,15
2018-05-17T06:53:39.188Z,15
2018-05-17T06:54:39.760Z,15
2018-05-17T06:55:40.335Z,15
2018-05-17T06:56:40.909Z,15
2018-05-17T06:57:41.482Z,15
2018-05-17T06:58:42.056Z,15
2018-05-17T06:59:42.631Z,20
2018-05-17T07:00:43.216Z,20
2018-05-17T07:01:43.780Z,20
2018-05-17T07:02:44.354Z,20
2018-05-17T07:03:44.934Z,20
2018-05-17T07:04:45.505Z,30
2018-05-17T07:05:46.088Z,30
2018-05-17T07:06:46.662Z,30
2018-05-17T07:07:47.235Z,30
2018-05-17T07:08:47.813Z,30
2018-05-17T07:09:48.396Z,30
2018-05-17T07:10:48.974Z,30
2018-05-17T07:11:49.544Z,35
2018-05-17T07:12:50.118Z,35
2018-05-17T07:13:50.693Z,35
2018-05-17T07:14:51.269Z,30
2018-05-17T07:15:51.842Z,30
2018-05-17T07:16:52.414Z,30
2018-05-17T07:17:53.035Z,30
2018-05-17T07:18:53.564Z,30
2018-05-17T07:19:54.136Z,30
2018-05-17T07:20:54.723Z,35
2018-05-17T07:21:55.296Z,35
2018-05-17T07:22:55.871Z,30
2018-05-17T07:23:56.445Z,25
2018-05-17T07:24:57.021Z,25
2018-05-17T07:25:57.593Z,40
2018-05-17T07:26:58.168Z,25
2018-05-17T07:27:58.744Z,25
2018-05-17T07:28:59.318Z,20
2018-05-17T07:29:59.893Z,20
2018-05-17T07:31:00.470Z,35
2018-05-17T07:32:01.043Z,25
2018-05-17T07:33:01.622Z,25
2018-05-17T07:34:02.206Z,20
2018-05-17T07:35:02.793Z,35
2018-05-17T07:36:03.375Z,30
2018-05-17T07:37:03.950Z,20
2018-05-17T07:38:04.525Z,20
2018-05-17T07:39:05.112Z,20
2018-05-17T07:40:05.685Z,20
2018-05-17T07:41:06.261Z,20
2018-05-17T07:42:06.838Z,20
2018-05-17T07:43:07.411Z,20
2018-05-17T07:44:07.985Z,20
2018-05-17T07:45:08.561Z,20
2018-05-17T07:46:09.135Z,20
2018-05-17T07:47:09.774Z,20
2018-05-17T07:48:10.284Z,20
2018-05-17T07:49:10.860Z,20
2018-05-17T07:50:11.436Z,20
2018-05-17T07:51:12.009Z,20
2018-05-17T07:52:12.595Z,20
2018-05-17T07:53:13.159Z,35
2018-05-17T07:54:13.736Z,35
2018-05-17T07:55:14.308Z,35
2018-05-17T07:56:14.884Z,40
2018-05-17T07:57:15.458Z,40
2018-05-17T07:58:16.035Z,45
2018-05-17T07:59:16.611Z,45
2018-05-17T08:00:17.196Z,35
2018-05-17T08:01:17.770Z,30
2018-05-17T08:02:18.347Z,40
2018-05-17T08:03:18.922Z,30
2018-05-17T08:04:19.494Z,30
2018-05-17T08:05:20.071Z,30
2018-05-17T08:06:20.646Z,30
2018-05-17T08:07:21.220Z,30
2018-05-17T08:08:21.795Z,25
2018-05-17T08:09:22.448Z,25
2018-05-17T08:10:22.947Z,25
2018-05-17T08:11:23.522Z,25
2018-05-17T08:12:24.097Z,25
2018-05-17T08:13:24.672Z,25
2018-05-17T08:14:25.256Z,25
2018-05-17T08:15:25.823Z,30
2018-05-17T08:16:26.400Z,30
2018-05-17T08:17:26.973Z,30
2018-05-17T08:18:27.547Z,30
2018-05-17T08:19:28.134Z,30
2018-05-17T08:20:28.707Z,25
2018-05-17T08:21:29.282Z,25
2018-05-17T08:22:29.857Z,25
2018-05-17T08:23:30.431Z,25
2018-05-17T08:24:31.013Z,25
2018-05-17T08:25:31.580Z,25
2018-05-17T08:26:32.155Z,25
2018-05-17T08:27:32.731Z,30
2018-05-17T08:28:33.305Z,35
2018-05-17T08:29:33.905Z,40
2018-05-17T08:30:34.487Z,30
2018-05-17T08:31:35.054Z,30
2018-05-17T08:32:35.627Z,30
2018-05-17T08:33:36.203Z,30
2018-05-17T08:34:36.780Z,30
2018-05-17T08:35:37.355Z,25
2018-05-17T08:36:38.055Z,20
2018-05-17T08:37:38.506Z,25
2018-05-17T08:38:39.084Z,20
2018-05-17T08:39:39.654Z,25
2018-05-17T08:40:40.230Z,25
2018-05-17T08:41:40.805Z,40
2018-05-17T08:42:41.459Z,35
2018-05-17T08:43:41.956Z,30
2018-05-17T08:44:42.530Z,25
2018-05-17T08:45:43.150Z,40
2018-05-17T08:46:43.683Z,20
2018-05-17T08:47:44.268Z,25
2018-05-17T08:48:44.841Z,35
2018-05-17T08:49:45.414Z,35
2018-05-17T08:50:45.991Z,35
2018-05-17T08:51:46.568Z,35
2018-05-17T08:52:47.143Z,40
2018-05-17T08:53:47.718Z,35
2018-05-17T08:54:48.296Z,25
2018-05-17T08:55:48.870Z,40
2018-05-17T08:56:49.451Z,40
2018-05-17T08:57:50.032Z,40
2018-05-17T08:58:50.609Z,30
2018-05-17T08:59:51.202Z,50
2018-05-17T09:00:51.782Z,45
2018-05-17T09:01:52.348Z,30
2018-05-17T09:02:52.923Z,30
2018-05-17T09:03:53.499Z,30
2018-05-17T09:04:54.076Z,50
2018-05-17T09:05:54.651Z,30
2018-05-17T09:06:55.224Z,30
2018-05-17T09:07:55.801Z,35
2018-05-17T09:08:56.389Z,30
2018-05-17T09:09:56.964Z,30
2018-05-17T09:10:57.540Z,40
2018-05-17T09:11:58.120Z,30
2018-05-17T09:12:58.703Z,30
2018-05-17T09:13:59.290Z,30
2018-05-17T09:14:59.867Z,30
2018-05-17T09:16:00.442Z,30
2018-05-17T09:17:01.037Z,35
2018-05-17T09:18:01.606Z,30
2018-05-17T09:19:02.185Z,45
2018-05-17T09:20:02.791Z,45
2018-05-17T09:21:03.347Z,25
2018-05-17T09:22:03.926Z,40
2018-05-17T09:23:04.509Z,45
2018-05-17T09:24:05.084Z,25
2018-05-17T09:25:05.664Z,30
2018-05-17T09:26:06.238Z,40
2018-05-17T09:27:06.818Z,45
2018-05-17T09:28:07.390Z,35
2018-05-17T09:29:08.013Z,40
2018-05-17T09:30:08.541Z,40
2018-05-17T09:31:09.123Z,40
2018-05-17T09:32:09.692Z,40
2018-05-17T09:33:10.268Z,30
2018-05-17T09:34:10.855Z,35
2018-05-17T09:35:11.437Z,35
2018-05-17T09:36:12.006Z,40
2018-05-17T09:37:12.582Z,40
2018-05-17T09:38:13.160Z,40
2018-05-17T09:39:13.735Z,40
2018-05-17T09:40:14.311Z,35
2018-05-17T09:41:14.888Z,35
2018-05-17T09:42:15.464Z,35
2018-05-17T09:43:16.038Z,35
2018-05-17T09:44:16.614Z,35
2018-05-17T09:45:17.201Z,35
2018-05-17T09:46:17.776Z,40
2018-05-17T09:47:18.358Z,35
2018-05-17T09:48:18.927Z,40
2018-05-17T09:49:19.504Z,25
2018-05-17T09:50:20.080Z,30
2018-05-17T09:51:20.657Z,25
2018-05-17T09:52:21.235Z,20
2018-05-17T09:53:21.809Z,25
2018-05-17T09:54:22.686Z,35
2018-05-17T09:55:23.264Z,35
2018-05-17T09:56:23.851Z,35
2018-05-17T09:57:24.427Z,35
2018-05-17T09:58:25.012Z,35
2018-05-17T09:59:25.596Z,35
2018-05-17T10:00:26.166Z,35
2018-05-17T10:01:26.743Z,35
2018-05-17T10:02:27.347Z,35
2018-05-17T10:03:27.924Z,35
2018-05-17T10:04:28.500Z,35
2018-05-17T10:05:29.083Z,35
2018-05-17T10:06:29.694Z,35
2018-05-17T10:07:30.269Z,35
2018-05-17T10:08:30.845Z,40
2018-05-17T10:09:31.424Z,30
2018-05-17T10:10:32.000Z,35
2018-05-17T10:11:32.577Z,35
2018-05-17T10:12:33.154Z,35
2018-05-17T10:13:33.730Z,35
2018-05-17T10:14:34.308Z,35
2018-05-17T10:15:34.895Z,30
2018-05-17T10:16:35.460Z,30
2018-05-17T10:17:36.045Z,35
2018-05-17T10:18:36.632Z,35
2018-05-17T10:19:37.210Z,35
2018-05-17T10:19:59.391Z,35
2018-05-17T10:20:59.970Z,35
2018-05-17T10:22:00.556Z,40
2018-05-17T10:23:01.149Z,40
2018-05-17T10:24:01.713Z,40
2018-05-17T10:25:02.300Z,35
2018-05-17T10:26:02.887Z,35
2018-05-17T10:27:03.464Z,40
2018-05-17T10:28:04.040Z,40
2018-05-17T10:29:04.618Z,35
2018-05-17T10:30:05.194Z,35
2018-05-17T10:31:05.769Z,40
2018-05-17T10:32:06.345Z,40
2018-05-17T10:33:06.931Z,35
2018-05-17T10:34:07.554Z,40
2018-05-17T10:35:08.091Z,35
2018-05-17T10:36:08.676Z,40
2018-05-17T10:37:09.253Z,40
2018-05-17T10:38:09.827Z,40
2018-05-17T10:39:10.415Z,40
2018-05-17T10:40:10.990Z,40
2018-05-17T10:41:11.566Z,40
2018-05-17T10:42:12.153Z,40
2018-05-17T10:43:12.734Z,40
2018-05-17T10:44:13.319Z,40
2018-05-17T10:45:13.895Z,20
2018-05-17T10:46:14.473Z,40
2018-05-17T10:47:15.049Z,40
2018-05-17T10:48:15.626Z,40
2018-05-17T10:49:16.204Z,40
2018-05-17T10:50:16.781Z,40
2018-05-17T10:51:17.359Z,40
2018-05-17T10:52:17.933Z,40
2018-05-17T10:53:18.509Z,40
2018-05-17T10:54:19.089Z,40
2018-05-17T10:55:19.664Z,40
2018-05-17T10:56:20.242Z,40
2018-05-17T10:57:20.821Z,20
2018-05-17T10:58:21.399Z,40
2018-05-17T10:59:21.975Z,40
2018-05-17T11:00:22.554Z,40
2018-05-17T11:01:23.131Z,40
2018-05-17T11:02:23.727Z,40
2018-05-17T11:03:24.296Z,40
2018-05-17T11:04:24.878Z,40
2018-05-17T11:05:25.460Z,40
2018-05-17T11:06:26.038Z,40
2018-05-17T11:07:26.616Z,40
2018-05-17T11:08:27.194Z,40
2018-05-17T11:09:27.782Z,40
2018-05-17T11:10:28.373Z,40
2018-05-17T11:11:28.951Z,40
2018-05-17T11:12:29.526Z,40
2018-05-17T11:13:30.104Z,40
2018-05-17T11:14:30.681Z,40
2018-05-17T11:15:31.257Z,40
2018-05-17T11:16:31.835Z,40
2018-05-17T11:17:32.414Z,40
2018-05-17T11:18:32.990Z,40
2018-05-17T11:19:33.569Z,40
2018-05-17T11:20:34.146Z,40
2018-05-17T11:21:34.725Z,40
2018-05-17T11:22:35.312Z,40
2018-05-17T11:23:35.900Z,40
2018-05-17T11:24:36.476Z,40
2018-05-17T11:25:37.057Z,40
2018-05-17T11:26:37.633Z,40
2018-05-17T11:27:38.224Z,35
2018-05-17T11:28:38.786Z,40
2018-05-17T11:29:39.367Z,20
2018-05-17T11:30:39.942Z,40
2018-05-17T11:31:40.530Z,40
2018-05-17T11:32:41.108Z,40
2018-05-17T11:33:41.686Z,20
2018-05-17T11:34:42.263Z,30
2018-05-17T11:35:42.843Z,40
2018-05-17T11:36:43.419Z,40
2018-05-17T11:37:44.014Z,40
2018-05-17T11:38:44.586Z,40
2018-05-17T11:39:45.179Z,40
2018-05-17T11:40:45.752Z,40
2018-05-17T11:41:46.331Z,40
2018-05-17T11:42:46.910Z,40
2018-05-17T11:43:47.487Z,35
2018-05-17T11:44:48.074Z,30
2018-05-17T11:45:48.650Z,40
2018-05-17T11:46:49.231Z,40
2018-05-17T11:47:49.805Z,40
2018-05-17T11:48:50.392Z,40
2018-05-17T11:49:50.972Z,40
2018-05-17T11:50:51.547Z,40
2018-05-17T11:51:52.128Z,40
2018-05-17T11:52:52.713Z,40
2018-05-17T11:53:53.302Z,40
2018-05-17T11:54:53.878Z,40
2018-05-17T11:55:54.455Z,40
2018-05-17T11:56:55.032Z,40
2018-05-17T11:57:55.610Z,40
2018-05-17T11:58:56.189Z,40
2018-05-17T11:59:56.779Z,40
2018-05-17T12:00:57.354Z,40
2018-05-17T12:01:57.934Z,40
2018-05-17T12:02:58.520Z,40
2018-05-17T12:03:59.104Z,40
2018-05-17T12:04:59.675Z,40
2018-05-17T12:06:00.253Z,40
2018-05-17T12:07:00.835Z,40
2018-05-17T12:08:01.406Z,40
2018-05-17T12:09:01.986Z,40
2018-05-17T12:10:02.562Z,40
2018-05-17T12:11:03.140Z,40
2018-05-17T12:12:03.718Z,40
2018-05-17T12:13:04.294Z,40
2018-05-17T12:14:04.872Z,40
2018-05-17T12:15:05.449Z,40
2018-05-17T12:16:06.032Z,40
2018-05-17T12:17:06.605Z,40
2018-05-17T12:18:07.183Z,40
2018-05-17T12:19:07.770Z,40
2018-05-17T12:20:08.349Z,40
2018-05-17T12:21:08.927Z,40
2018-05-17T12:22:09.507Z,40
2018-05-17T12:23:10.084Z,40
2018-05-17T12:24:10.660Z,40
2018-05-17T12:25:11.237Z,40
2018-05-17T12:26:11.827Z,40
2018-05-17T12:27:12.406Z,40
2018-05-17T12:28:12.984Z,40
2018-05-17T12:29:13.564Z,40
2018-05-17T12:30:14.141Z,40
2018-05-17T12:31:14.720Z,40
2018-05-17T12:32:15.300Z,40
2018-05-17T12:33:15.877Z,40
2018-05-17T12:34:16.459Z,40
2018-05-17T12:35:17.040Z,40
2018-05-17T12:36:17.619Z,40
2018-05-17T12:37:18.198Z,40
2018-05-17T12:38:18.787Z,40
2018-05-17T12:39:19.362Z,40
2018-05-17T12:40:19.942Z,40
2018-05-17T12:41:20.519Z,40
2018-05-17T12:42:21.098Z,40
2018-05-17T12:43:21.675Z,40
2018-05-17T12:44:22.254Z,40
2018-05-17T12:45:22.836Z,40
2018-05-17T12:46:23.412Z,40
2018-05-17T12:47:23.991Z,45
2018-05-17T12:48:24.571Z,45
2018-05-17T12:49:25.150Z,45
2018-05-17T12:50:25.734Z,40
2018-05-17T12:51:26.320Z,40
2018-05-17T12:52:26.899Z,45
2018-05-17T12:53:27.478Z,40
2018-05-17T12:54:28.068Z,40
2018-05-17T12:55:28.651Z,40
2018-05-17T12:56:29.225Z,40
2018-05-17T12:57:29.806Z,40
2018-05-17T12:58:30.396Z,45
2018-05-17T12:59:30.965Z,45
2018-05-17T13:00:31.544Z,40
2018-05-17T13:01:32.134Z,40
2018-05-17T13:02:32.712Z,45
2018-05-17T13:03:33.292Z,40
2018-05-17T13:04:33.872Z,40
2018-05-17T13:05:34.448Z,40
2018-05-17T13:06:35.028Z,40
2018-05-17T13:07:35.609Z,40
2018-05-17T13:08:36.188Z,40
2018-05-17T13:09:36.779Z,40
2018-05-17T13:10:37.358Z,40
2018-05-17T13:11:37.938Z,45
2018-05-17T13:12:38.517Z,45
2018-05-17T13:13:39.096Z,45
2018-05-17T13:14:39.677Z,45
2018-05-17T13:15:40.256Z,45
2018-05-17T13:16:40.839Z,45
2018-05-17T13:17:41.417Z,45
2018-05-17T13:18:41.995Z,45
2018-05-17T13:19:42.575Z,45
2018-05-17T13:20:43.159Z,45
2018-05-17T13:21:43.746Z,45
2018-05-17T13:22:44.323Z,40
2018-05-17T13:23:44.902Z,40
2018-05-17T13:24:45.485Z,40
2018-05-17T13:25:46.061Z,45
2018-05-17T13:26:46.646Z,45
2018-05-17T13:27:47.222Z,45
2018-05-17T13:28:47.801Z,45
2018-05-17T13:29:48.392Z,40
2018-05-17T13:30:48.984Z,40
2018-05-17T13:31:49.564Z,40
2018-05-17T13:32:50.142Z,45
2018-05-17T13:33:50.721Z,45
2018-05-17T13:34:51.301Z,45
2018-05-17T13:35:51.880Z,45
2018-05-17T13:36:52.539Z,45
2018-05-17T13:37:53.044Z,45
2018-05-17T13:38:53.624Z,45
2018-05-17T13:39:54.202Z,45
2018-05-17T13:40:54.784Z,45
2018-05-17T13:41:55.374Z,45
2018-05-17T13:42:55.953Z,45
2018-05-17T13:43:56.533Z,45
2018-05-17T13:44:57.114Z,45
2018-05-17T13:45:57.693Z,50
2018-05-17T13:46:58.273Z,50
2018-05-17T13:47:58.931Z,50
2018-05-17T13:48:59.432Z,50
2018-05-17T13:50:00.011Z,50
2018-05-17T13:51:00.592Z,50
2018-05-17T13:52:01.172Z,50
2018-05-17T13:53:01.755Z,50
2018-05-17T13:54:02.345Z,50
2018-05-17T13:55:02.922Z,50
2018-05-17T13:56:03.500Z,45
2018-05-17T13:57:04.079Z,50
2018-05-17T13:58:04.669Z,50
2018-05-17T13:59:05.249Z,50
2018-05-17T14:00:05.829Z,50
2018-05-17T14:01:06.411Z,50
2018-05-17T14:02:06.987Z,50
2018-05-17T14:03:07.569Z,50
2018-05-17T14:04:08.149Z,50
2018-05-17T14:05:08.728Z,50
2018-05-17T14:06:09.308Z,50
2018-05-17T14:07:09.888Z,50
2018-05-17T14:08:10.468Z,50
2018-05-17T14:09:11.047Z,50
2018-05-17T14:10:11.628Z,50
2018-05-17T14:11:12.207Z,50
2018-05-17T14:12:12.788Z,50
2018-05-17T14:13:13.368Z,50
2018-05-17T14:14:13.946Z,50
2018-05-17T14:15:14.561Z,50
2018-05-17T14:16:15.110Z,50
2018-05-17T14:17:15.688Z,50
2018-05-17T14:18:16.265Z,50
2018-05-17T14:19:16.846Z,50
2018-05-17T14:20:17.439Z,50
2018-05-17T14:21:18.018Z,50
2018-05-17T14:22:18.598Z,50
2018-05-17T14:23:19.180Z,50
2018-05-17T14:24:19.782Z,50
2018-05-17T14:25:20.339Z,50
2018-05-17T14:26:20.921Z,55
2018-05-17T14:27:21.501Z,55
2018-05-17T14:28:22.077Z,55
2018-05-17T14:29:22.660Z,60
2018-05-17T14:30:23.240Z,60
2018-05-17T14:31:23.820Z,55
2018-05-17T14:32:24.400Z,60
2018-05-17T14:33:24.981Z,65
2018-05-17T14:34:25.562Z,65
2018-05-17T14:35:26.142Z,65